createdAt,value
2022-08-09T00:00:00.417Z,5.47
2022-08-09T00:02:29.108Z,5.05
2022-08-09T00:05:03.311Z,6.03
2022-08-09T00:07:45.188Z,4.25
2022-08-09T00:10:17.925Z,5.10
2022-08-09T00:12:51.721Z,7.03
2022-08-09T00:15:26.406Z,7.65
2022-08-09T00:18:11.222Z,6.35
2022-08-09T00:20:48.166Z,5.40
2022-08-09T00:23:58.352Z,5.75
2022-08-09T00:26:07.247Z,6.35
2022-08-09T00:28:35.123Z,7.15
2022-08-09T00:31:50.506Z,6.30
2022-08-09T00:33:52.060Z,7.05
2022-08-09T00:36:20.874Z,10.40
2022-08-09T00:38:50.796Z,6.63
2022-08-09T00:44:10.126Z,6.72
2022-08-09T00:44:19.901Z,5.38
2022-08-09T00:46:55.869Z,6.55
2022-08-09T00:49:23.862Z,8.77
2022-08-09T00:51:57.097Z,9.45
2022-08-09T00:54:31.257Z,10.45
2022-08-09T00:57:01.649Z,6.93
2022-08-09T00:59:40.697Z,7.20
2022-08-09T01:02:09.253Z,7.03
2022-08-09T01:04:42.196Z,8.95
2022-08-09T01:07:37.670Z,7.97
2022-08-09T01:10:38.337Z,8.88
2022-08-09T01:13:16.709Z,5.93
2022-08-09T01:15:52.353Z,12.32
2022-08-09T01:18:29.813Z,11.52
2022-08-09T01:21:41.182Z,6.57
2022-08-09T01:24:30.576Z,6.85
2022-08-09T01:27:09.665Z,6.38
2022-08-09T01:29:55.884Z,6.75
2022-08-09T01:32:33.579Z,6.50
2022-08-09T01:35:38.327Z,6.78
2022-08-09T01:38:15.309Z,5.70
2022-08-09T01:40:52.913Z,9.85
2022-08-09T01:43:50.063Z,6.07
2022-08-09T01:46:27.210Z,6.32
2022-08-09T01:48:59.804Z,6.45
2022-08-09T01:51:32.159Z,6.63
2022-08-09T01:54:01.585Z,8.15
2022-08-09T01:56:30.340Z,12.05
2022-08-09T01:59:01.567Z,6.43
2022-08-09T02:01:57.989Z,5.15
2022-08-09T02:04:18.886Z,7.85
2022-08-09T02:07:05.759Z,9.50
2022-08-09T02:09:41.886Z,7.20
2022-08-09T02:12:13.361Z,7.13
2022-08-09T02:14:48.098Z,8.77
2022-08-09T02:17:59.507Z,7.10
2022-08-09T02:20:11.102Z,7.45
2022-08-09T02:22:52.729Z,6.47
2022-08-09T02:25:27.241Z,6.40
2022-08-09T02:28:09.763Z,9.07
2022-08-09T02:30:41.976Z,9.63
2022-08-09T02:33:14.567Z,6.55
2022-08-09T02:36:03.350Z,7.70
2022-08-09T02:38:47.500Z,8.07
2022-08-09T02:41:28.351Z,7.95
2022-08-09T02:44:10.413Z,6.22
2022-08-09T02:46:52.029Z,7.82
2022-08-09T02:49:38.191Z,11.15
2022-08-09T02:52:07.848Z,10.07
2022-08-09T02:54:37.108Z,7.70
2022-08-09T02:57:23.725Z,7.22
2022-08-09T03:00:21.589Z,8.27
2022-08-09T03:02:58.130Z,10.02
2022-08-09T03:05:26.901Z,9.13
2022-08-09T03:07:55.853Z,8.77
2022-08-09T03:10:24.564Z,6.28
2022-08-09T03:12:53.490Z,9.18
2022-08-09T03:15:23.098Z,8.00
2022-08-09T03:17:53.832Z,11.00
2022-08-09T03:20:29.619Z,7.65
2022-08-09T03:23:15.306Z,5.75
2022-08-09T03:26:02.150Z,6.30
2022-08-09T03:28:32.924Z,5.50
2022-08-09T03:31:10.144Z,7.55
2022-08-09T03:33:53.399Z,5.88
2022-08-09T03:36:27.658Z,5.03
2022-08-09T03:38:56.373Z,6.45
2022-08-09T03:41:29.968Z,7.00
2022-08-09T03:44:10.330Z,6.65
2022-08-09T03:46:39.258Z,6.90
2022-08-09T03:49:08.870Z,10.05
2022-08-09T03:51:57.171Z,10.07
2022-08-09T03:54:31.899Z,6.68
2022-08-09T03:57:12.446Z,7.15
2022-08-09T03:59:54.823Z,5.90
2022-08-09T04:02:26.502Z,6.68
2022-08-09T04:04:59.288Z,5.35
2022-08-09T04:07:47.533Z,8.25
2022-08-09T04:10:20.358Z,4.75
2022-08-09T04:12:51.206Z,4.97
2022-08-09T04:15:38.768Z,7.25
2022-08-09T04:18:07.574Z,5.70
2022-08-09T04:20:34.681Z,5.95
2022-08-09T04:23:02.051Z,6.88
2022-08-09T04:25:29.073Z,6.10
2022-08-09T04:28:00.040Z,5.25
2022-08-09T04:30:29.759Z,5.78
2022-08-09T04:32:57.065Z,6.03
2022-08-09T04:35:24.119Z,6.05
2022-08-09T04:37:50.847Z,6.63
2022-08-09T04:40:36.253Z,8.30
2022-08-09T04:43:03.997Z,9.13
2022-08-09T04:45:35.944Z,6.68
2022-08-09T04:48:19.700Z,7.18
2022-08-09T04:50:46.839Z,9.48
2022-08-09T04:53:16.801Z,6.57
2022-08-09T04:55:57.864Z,7.65
2022-08-09T04:58:27.024Z,10.13
2022-08-09T05:00:54.781Z,6.78
2022-08-09T05:03:40.007Z,6.50
2022-08-09T05:06:09.514Z,6.75
2022-08-09T05:08:36.367Z,7.22
2022-08-09T05:11:07.498Z,8.27
2022-08-09T05:13:38.844Z,7.70
2022-08-09T05:16:08.125Z,6.40
2022-08-09T05:18:42.507Z,7.28
2022-08-09T05:21:24.880Z,8.13
2022-08-09T05:24:00.202Z,6.72
2022-08-09T05:26:45.554Z,9.43
2022-08-09T05:29:21.885Z,8.15
2022-08-09T05:31:56.400Z,8.18
2022-08-09T05:34:31.030Z,7.40
2022-08-09T05:37:01.722Z,7.93
2022-08-09T05:39:36.223Z,8.95
2022-08-09T05:42:17.984Z,8.80
2022-08-09T05:44:50.792Z,7.90
2022-08-09T05:47:19.107Z,8.35
2022-08-09T05:50:28.091Z,8.15
2022-08-09T05:52:33.147Z,9.75
2022-08-09T05:55:06.725Z,8.18
2022-08-09T05:57:56.031Z,12.93
2022-08-09T06:00:22.874Z,7.55
2022-08-09T06:02:54.647Z,7.68
2022-08-09T06:05:31.007Z,9.57
2022-08-09T06:08:12.850Z,11.10
2022-08-09T06:10:40.142Z,7.55
2022-08-09T06:13:12.176Z,7.82
2022-08-09T06:15:46.899Z,7.50
2022-08-09T06:18:15.824Z,6.93
2022-08-09T06:20:54.928Z,8.35
2022-08-09T06:23:58.515Z,8.40
2022-08-09T06:26:14.884Z,9.40
2022-08-09T06:28:47.399Z,8.88
2022-08-09T06:31:15.582Z,10.68
2022-08-09T06:33:48.755Z,14.88
2022-08-09T06:36:27.338Z,8.55
2022-08-09T06:38:57.570Z,8.27
2022-08-09T06:42:08.244Z,7.60
2022-08-09T06:44:18.294Z,6.57
2022-08-09T06:46:46.056Z,7.60
2022-08-09T06:49:16.049Z,6.53
2022-08-09T06:54:14.739Z,6.38
2022-08-09T06:56:45.485Z,4.25
2022-08-09T07:00:51.497Z,4.97
2022-08-09T07:02:04.593Z,4.45
2022-08-09T07:04:31.802Z,5.32
2022-08-09T07:07:00.179Z,3.50
2022-08-09T07:09:57.008Z,4.38
2022-08-09T07:12:18.301Z,4.55
2022-08-09T07:17:20.072Z,5.05
2022-08-09T07:19:48.108Z,3.13
2022-08-09T07:22:18.087Z,4.50
2022-08-09T07:24:49.384Z,3.78
2022-08-09T07:27:33.032Z,9.18
2022-08-09T07:30:02.395Z,3.97
2022-08-09T07:32:32.918Z,4.47
2022-08-09T07:35:10.651Z,4.00
2022-08-09T07:37:45.429Z,3.03
2022-08-09T07:40:18.754Z,3.28
2022-08-09T07:42:55.958Z,2.50
2022-08-09T07:45:37.272Z,2.42
2022-08-09T07:48:06.024Z,5.22
2022-08-09T07:50:36.263Z,6.68
2022-08-09T07:53:05.127Z,2.40
2022-08-09T07:55:41.568Z,4.25
2022-08-09T07:58:26.848Z,5.63
2022-08-09T08:00:58.784Z,5.15
2022-08-09T08:03:36.764Z,3.83
2022-08-09T08:06:04.453Z,5.60
2022-08-09T08:09:00.088Z,2.83
2022-08-09T08:12:10.283Z,5.22
2022-08-09T08:14:06.674Z,2.83
2022-08-09T08:16:34.567Z,4.03
2022-08-09T08:19:02.968Z,2.25
2022-08-09T08:21:31.454Z,3.28
2022-08-09T08:24:01.121Z,3.45
2022-08-09T08:26:41.870Z,3.08
2022-08-09T08:29:28.092Z,4.57
2022-08-09T08:32:02.573Z,5.55
2022-08-09T08:34:31.309Z,2.95
2022-08-09T08:37:02.731Z,5.80
2022-08-09T08:39:32.990Z,4.38
2022-08-09T08:42:11.010Z,4.45
2022-08-09T08:44:39.561Z,2.47
2022-08-09T08:47:12.851Z,3.03
2022-08-09T08:49:46.709Z,3.90
2022-08-09T08:52:52.461Z,4.30
2022-08-09T08:55:08.693Z,3.58
2022-08-09T08:57:37.641Z,7.80
2022-08-09T09:00:13.150Z,3.13
2022-08-09T09:03:04.431Z,2.60
2022-08-09T09:05:58.578Z,3.80
2022-08-09T09:08:30.142Z,2.13
2022-08-09T09:11:02.832Z,3.38
2022-08-09T09:13:55.132Z,3.78
2022-08-09T09:16:31.889Z,7.80
2022-08-09T09:22:05.437Z,4.20
2022-08-09T09:24:46.151Z,1.95
2022-08-09T09:28:03.588Z,3.25
2022-08-09T09:30:38.289Z,3.38
2022-08-09T09:33:16.851Z,3.08
2022-08-09T09:36:02.046Z,2.90
2022-08-09T09:39:08.804Z,1.92
2022-08-09T09:41:49.620Z,1.90
2022-08-09T09:44:31.343Z,2.65
2022-08-09T09:47:16.567Z,2.60
2022-08-09T09:50:13.886Z,2.67
2022-08-09T09:52:56.497Z,2.95
2022-08-09T09:55:32.484Z,3.45
2022-08-09T09:58:17.159Z,1.92
2022-08-09T10:00:59.769Z,2.58
2022-08-09T10:03:57.114Z,2.50
2022-08-09T10:06:38.027Z,2.42
2022-08-09T10:09:22.391Z,5.60
2022-08-09T10:12:12.354Z,1.55
2022-08-09T10:14:49.941Z,3.42
2022-08-09T10:17:39.208Z,2.03
2022-08-09T10:20:27.543Z,4.47
2022-08-09T10:23:17.259Z,2.20
2022-08-09T10:26:07.417Z,2.35
2022-08-09T10:28:36.516Z,4.90
2022-08-09T10:34:09.545Z,3.55
2022-08-09T10:36:42.098Z,2.25
2022-08-09T10:39:14.170Z,2.80
2022-08-09T10:41:47.472Z,4.15
2022-08-09T10:44:18.526Z,3.78
2022-08-09T10:47:20.522Z,2.63
2022-08-09T10:50:09.959Z,3.97
2022-08-09T10:53:17.445Z,4.93
2022-08-09T10:55:55.304Z,1.75
2022-08-09T10:58:35.022Z,2.92
2022-08-09T11:03:01.795Z,3.17
2022-08-09T11:04:28.296Z,3.28
2022-08-09T11:06:59.930Z,6.38
2022-08-09T11:09:41.344Z,2.60
2022-08-09T11:12:29.399Z,2.00
2022-08-09T11:15:19.066Z,2.83
2022-08-09T11:17:56.813Z,3.25
2022-08-09T11:20:43.211Z,2.40
2022-08-09T11:23:11.030Z,2.38
2022-08-09T11:25:47.859Z,2.00
2022-08-09T11:28:55.710Z,2.38
2022-08-09T11:31:49.213Z,3.63
2022-08-09T11:34:45.608Z,2.92
2022-08-09T11:37:26.305Z,3.95
2022-08-09T11:40:37.597Z,2.08
2022-08-09T11:43:04.741Z,3.58
2022-08-09T11:45:43.139Z,2.97
2022-08-09T11:48:26.781Z,1.33
2022-08-09T11:52:36.743Z,1.83
2022-08-09T11:54:00.491Z,2.03
2022-08-09T11:56:41.298Z,4.05
2022-08-09T11:59:11.583Z,1.30
2022-08-09T12:02:16.904Z,3.78
2022-08-09T12:04:32.331Z,2.45
2022-08-09T12:07:08.205Z,2.45
2022-08-09T12:09:36.214Z,3.75
2022-08-09T12:12:12.880Z,2.97
2022-08-09T12:14:58.928Z,2.08
2022-08-09T12:17:42.088Z,1.35
2022-08-09T12:20:16.633Z,2.13
2022-08-09T12:22:50.307Z,1.15
2022-08-09T12:25:32.036Z,3.45
2022-08-09T12:29:11.902Z,3.42
2022-08-09T12:31:00.684Z,2.38
2022-08-09T12:33:50.984Z,2.70
2022-08-09T12:36:31.122Z,2.15
2022-08-09T12:39:00.964Z,3.30
2022-08-09T12:41:38.198Z,4.15
2022-08-09T12:44:09.987Z,1.10
2022-08-09T12:46:48.638Z,2.50
2022-08-09T12:49:17.354Z,1.95
2022-08-09T12:52:02.669Z,2.92
2022-08-09T12:55:03.023Z,9.50
2022-08-09T12:57:40.494Z,1.85
2022-08-09T13:00:18.417Z,3.45
2022-08-09T13:03:00.080Z,3.35
2022-08-09T13:05:51.779Z,2.05
2022-08-09T13:08:40.476Z,1.95
2022-08-09T13:11:23.303Z,2.38
2022-08-09T13:14:42.413Z,1.40
2022-08-09T13:16:54.477Z,3.80
2022-08-09T13:20:08.284Z,3.35
2022-08-09T13:22:38.314Z,4.57
2022-08-09T13:27:54.758Z,3.10
2022-08-09T13:30:50.650Z,3.70
2022-08-09T13:33:51.730Z,8.50
2022-08-09T13:36:39.657Z,2.85
2022-08-09T13:39:08.256Z,2.40
2022-08-09T13:42:00.020Z,1.35
2022-08-09T13:44:28.380Z,5.05
2022-08-09T13:47:16.758Z,3.55
2022-08-09T13:49:58.131Z,2.25
2022-08-09T13:52:30.457Z,2.30
2022-08-09T13:55:00.650Z,3.00
2022-08-09T13:57:36.656Z,2.83
2022-08-09T14:00:16.038Z,2.40
2022-08-09T14:03:58.152Z,2.00
2022-08-09T14:05:58.993Z,3.53
2022-08-09T14:08:21.946Z,1.48
2022-08-09T14:10:52.055Z,2.25
2022-08-09T14:13:27.643Z,2.47
2022-08-09T14:16:11.404Z,4.85
2022-08-09T14:18:45.481Z,10.70
2022-08-09T14:21:17.554Z,2.92
2022-08-09T14:23:55.201Z,2.63
2022-08-09T14:26:30.517Z,1.50
2022-08-09T14:29:07.884Z,1.77
2022-08-09T14:31:53.574Z,2.15
2022-08-09T14:34:30.726Z,3.45
2022-08-09T14:37:01.778Z,1.45
2022-08-09T14:39:45.469Z,2.38
2022-08-09T14:42:31.781Z,1.38
2022-08-09T14:46:46.674Z,1.00
2022-08-09T14:47:58.637Z,2.17
2022-08-09T14:50:37.084Z,5.65
2022-08-09T14:53:11.355Z,3.35
2022-08-09T14:55:49.844Z,1.50
2022-08-09T14:58:17.653Z,3.17
2022-08-09T15:00:48.298Z,1.40
2022-08-09T15:03:20.507Z,5.75
2022-08-09T15:05:52.260Z,2.28
2022-08-09T15:08:25.008Z,5.15
2022-08-09T15:11:00.285Z,2.20
2022-08-09T15:13:47.832Z,1.92
2022-08-09T15:16:16.690Z,2.53
2022-08-09T15:18:43.448Z,2.53
2022-08-09T15:21:57.001Z,5.38
2022-08-09T15:24:13.984Z,2.17
2022-08-09T15:26:46.757Z,1.65
2022-08-09T15:30:59.131Z,1.85
2022-08-09T15:32:02.874Z,2.42
2022-08-09T15:34:34.636Z,2.28
2022-08-09T15:37:23.824Z,3.08
2022-08-09T15:39:54.955Z,3.95
2022-08-09T15:42:22.356Z,2.75
2022-08-09T15:44:49.997Z,4.78
2022-08-09T15:47:22.300Z,4.40
2022-08-09T15:50:04.438Z,2.80
2022-08-09T15:52:34.010Z,2.35
2022-08-09T15:55:01.663Z,1.17
2022-08-09T15:57:34.949Z,1.38
2022-08-09T16:00:25.120Z,5.70
2022-08-09T16:02:54.810Z,1.83
2022-08-09T16:05:26.464Z,0.90
2022-08-09T16:08:24.730Z,2.38
2022-08-09T16:11:02.186Z,1.42
2022-08-09T16:14:03.903Z,3.17
2022-08-09T16:16:20.416Z,3.20
2022-08-09T16:18:55.870Z,2.13
2022-08-09T16:21:25.176Z,3.70
2022-08-09T16:23:58.232Z,2.55
2022-08-09T16:26:34.484Z,2.95
2022-08-09T16:29:14.829Z,1.90
2022-08-09T16:32:19.940Z,2.00
2022-08-09T16:34:56.182Z,1.45
2022-08-09T16:37:18.932Z,3.08
2022-08-09T16:40:02.650Z,2.53
2022-08-09T16:42:32.967Z,4.13
2022-08-09T16:44:59.661Z,1.70
2022-08-09T16:48:38.947Z,2.45
2022-08-09T16:50:33.150Z,3.60
2022-08-09T16:53:02.233Z,3.05
2022-08-09T16:55:44.425Z,2.55
2022-08-09T16:58:17.866Z,1.73
2022-08-09T17:00:46.519Z,4.05
2022-08-09T17:03:21.508Z,3.55
2022-08-09T17:06:03.478Z,4.05
2022-08-09T17:08:58.163Z,6.28
2022-08-09T17:11:32.899Z,3.50
2022-08-09T17:14:08.933Z,1.25
2022-08-09T17:16:54.452Z,3.05
2022-08-09T17:19:21.496Z,2.95
2022-08-09T17:21:54.431Z,1.60
2022-08-09T17:24:30.270Z,1.40
2022-08-09T17:26:58.308Z,3.00
2022-08-09T17:29:31.451Z,2.85
2022-08-09T17:32:00.893Z,2.33
2022-08-09T17:35:02.059Z,1.98
2022-08-09T17:37:19.570Z,2.10
2022-08-09T17:39:52.511Z,3.05
2022-08-09T17:42:41.169Z,2.05
2022-08-09T17:45:15.688Z,6.57
2022-08-09T17:47:49.401Z,1.38
2022-08-09T17:50:25.114Z,2.58
2022-08-09T17:53:04.735Z,4.55
2022-08-09T17:55:49.429Z,4.43
2022-08-09T17:58:19.253Z,2.10
2022-08-09T18:00:48.275Z,2.05
2022-08-09T18:03:17.966Z,4.05
2022-08-09T18:05:52.931Z,1.85
2022-08-09T18:08:22.041Z,2.53
2022-08-09T18:11:00.876Z,3.38
2022-08-09T18:13:54.436Z,4.95
2022-08-09T18:16:29.312Z,2.97
2022-08-09T18:18:59.503Z,2.65
2022-08-09T18:21:41.518Z,2.47
2022-08-09T18:24:14.235Z,2.70
2022-08-09T18:26:46.595Z,2.75
2022-08-09T18:30:40.041Z,3.40
2022-08-09T18:34:35.444Z,1.38
2022-08-09T18:37:10.081Z,2.30
2022-08-09T18:39:39.673Z,2.65
2022-08-09T18:42:09.223Z,4.80
2022-08-09T18:44:36.724Z,3.85
2022-08-09T18:47:09.793Z,1.33
2022-08-09T18:49:43.251Z,1.60
2022-08-09T18:52:16.111Z,4.45
2022-08-09T18:54:49.770Z,3.50
2022-08-09T18:57:21.897Z,4.60
2022-08-09T18:59:57.563Z,4.20
2022-08-09T19:02:31.974Z,3.42
2022-08-09T19:05:04.031Z,2.55
2022-08-09T19:07:59.384Z,5.05
2022-08-09T19:10:29.626Z,2.05
2022-08-09T19:13:20.526Z,2.45
2022-08-09T19:15:55.802Z,3.22
2022-08-09T19:18:33.839Z,2.55
2022-08-09T19:21:08.911Z,4.93
2022-08-09T19:24:31.980Z,4.40
2022-08-09T19:26:32.132Z,4.60
2022-08-09T19:29:15.404Z,2.70
2022-08-09T19:31:46.534Z,5.30
2022-08-09T19:34:22.516Z,2.90
2022-08-09T19:36:54.056Z,3.70
2022-08-09T19:39:43.413Z,2.50
2022-08-09T19:42:14.552Z,3.13
2022-08-09T19:44:42.418Z,4.90
2022-08-09T19:47:11.224Z,4.55
2022-08-09T19:50:07.775Z,2.97
2022-08-09T19:52:29.058Z,7.38
2022-08-09T19:54:55.828Z,1.60
2022-08-09T19:57:25.897Z,4.47
2022-08-09T19:59:59.139Z,2.83
2022-08-09T20:04:10.149Z,3.75
2022-08-09T20:05:23.959Z,4.65
2022-08-09T20:07:59.520Z,5.70
2022-08-09T20:10:34.294Z,2.42
2022-08-09T20:13:05.229Z,4.57
2022-08-09T20:18:19.867Z,5.32
2022-08-09T20:20:47.340Z,2.58
2022-08-09T20:23:21.119Z,6.68
2022-08-09T20:25:53.461Z,3.03
2022-08-09T20:28:32.047Z,7.53
2022-08-09T20:31:13.722Z,2.83
2022-08-09T20:33:44.287Z,4.47
2022-08-09T20:36:12.763Z,3.92
2022-08-09T20:41:35.170Z,2.25
2022-08-09T20:44:10.058Z,3.63
2022-08-09T20:46:44.084Z,3.47
2022-08-09T20:49:15.757Z,4.10
2022-08-09T20:51:43.866Z,4.28
2022-08-09T20:54:16.587Z,3.20
2022-08-09T20:56:47.221Z,3.38
2022-08-09T20:59:16.850Z,4.43
2022-08-09T21:01:50.660Z,3.45
2022-08-09T21:05:53.039Z,2.92
2022-08-09T21:07:11.558Z,4.25
2022-08-09T21:09:45.655Z,4.68
2022-08-09T21:14:48.418Z,5.55
2022-08-09T21:18:21.374Z,5.97
2022-08-09T21:20:04.362Z,3.58
2022-08-09T21:22:53.937Z,3.60
2022-08-09T21:25:44.441Z,3.45
2022-08-09T21:28:35.815Z,4.25
2022-08-09T21:31:16.704Z,3.15
2022-08-09T21:33:50.906Z,5.63
2022-08-09T21:36:23.139Z,7.25
2022-08-09T21:38:57.378Z,4.07
2022-08-09T21:42:05.712Z,5.05
2022-08-09T21:44:33.048Z,3.47
2022-08-09T21:47:07.735Z,3.47
2022-08-09T21:49:42.994Z,3.75
2022-08-09T21:52:17.444Z,7.43
2022-08-09T21:55:03.181Z,4.03
2022-08-09T21:57:38.154Z,2.58
2022-08-09T22:00:32.664Z,3.90
2022-08-09T22:03:04.529Z,2.65
2022-08-09T22:05:35.791Z,4.55
2022-08-09T22:08:13.866Z,3.25
2022-08-09T22:11:49.910Z,2.58
2022-08-09T22:13:34.850Z,4.68
2022-08-09T22:16:04.141Z,6.88
2022-08-09T22:18:32.983Z,3.33
2022-08-09T22:21:00.805Z,2.63
2022-08-09T22:23:35.436Z,4.25
2022-08-09T22:26:05.758Z,4.25
2022-08-09T22:28:47.174Z,3.38
2022-08-09T22:31:20.680Z,4.90
2022-08-09T22:33:49.028Z,3.33
2022-08-09T22:36:21.910Z,3.35
2022-08-09T22:38:49.316Z,3.95
2022-08-09T22:41:16.600Z,4.82
2022-08-09T22:44:03.023Z,4.30
2022-08-09T22:48:10.457Z,4.43
2022-08-09T22:49:18.737Z,3.95
2022-08-09T22:51:49.610Z,3.97
2022-08-09T22:54:26.089Z,3.13
2022-08-09T22:56:56.797Z,3.47
2022-08-09T22:59:55.620Z,4.25
2022-08-09T23:02:15.183Z,5.05
2022-08-09T23:04:53.801Z,4.70
2022-08-09T23:08:29.340Z,4.50
2022-08-09T23:10:28.086Z,3.65
2022-08-09T23:12:54.829Z,3.17
2022-08-09T23:15:21.893Z,4.60
2022-08-09T23:17:48.794Z,3.70
2022-08-09T23:20:15.869Z,4.25
2022-08-09T23:22:42.583Z,6.00
2022-08-09T23:25:11.197Z,3.65
2022-08-09T23:27:59.661Z,5.90
2022-08-09T23:30:24.893Z,3.67
2022-08-09T23:32:51.607Z,4.18
2022-08-09T23:35:18.790Z,4.30
2022-08-09T23:37:45.498Z,3.63
2022-08-09T23:40:13.083Z,5.15
2022-08-09T23:42:40.621Z,4.15
2022-08-09T23:45:08.837Z,2.67
2022-08-09T23:47:35.744Z,3.05
2022-08-09T23:50:03.142Z,3.78
2022-08-09T23:52:29.844Z,3.83
2022-08-09T23:54:58.069Z,3.75
2022-08-09T23:57:24.785Z,5.38
